Time,TemperatureF,DewpointF,PressureIn,WindDirection,WindDirectionDegrees,WindSpeedMPH,WindSpeedGustMPH,Humidity,HourlyPrecipIn,Conditions,Clouds,dailyrainin,SoftwareType,DateUTC
2013-01-21 00:06:00,48.1,47.0,30.11,East,88,0.0,0.0,94,0.00,,,0.00,weatherlink.com 1.10,2013-01-21 05:06:00,
2013-01-21 00:21:00,48.3,47.0,30.11,East,88,0.0,0.0,94,0.00,,,0.00,weatherlink.com 1.10,2013-01-21 05:21:00,
2013-01-21 00:36:00,48.1,47.0,30.11,East,88,0.0,0.0,94,0.00,,,0.00,weatherlink.com 1.10,2013-01-21 05:36:00,
2013-01-21 00:51:00,47.7,46.0,30.11,East,88,0.0,0.0,94,0.00,,,0.00,weatherlink.com 1.10,2013-01-21 05:51:00,
2013-01-21 01:06:00,47.7,46.0,30.10,East,88,0.0,0.0,94,0.00,,,0.00,weatherlink.com 1.10,2013-01-21 06:06:00,
2013-01-21 01:21:00,47.8,46.0,30.10,East,88,0.0,0.0,94,0.00,,,0.00,weatherlink.com 1.10,2013-01-21 06:21:00,
2013-01-21 01:36:00,47.5,46.0,30.10,East,88,0.0,0.0,94,0.00,,,0.00,weatherlink.com 1.10,2013-01-21 06:36:00,
2013-01-21 01:51:00,47.3,46.0,30.10,East,88,0.0,0.0,94,0.00,,,0.00,weatherlink.com 1.10,2013-01-21 06:51:00,
2013-01-21 02:06:00,47.3,46.0,30.10,East,88,0.0,0.0,94,0.00,,,0.00,weatherlink.com 1.10,2013-01-21 07:06:00,
2013-01-21 02:21:00,47.3,46.0,30.10,East,88,0.0,0.0,95,0.00,,,0.00,weatherlink.com 1.10,2013-01-21 07:21:00,
2013-01-21 02:36:00,47.3,46.0,30.09,East,88,0.0,0.0,95,0.00,,,0.00,weatherlink.com 1.10,2013-01-21 07:36:00,
2013-01-21 02:51:00,47.5,46.0,30.09,East,88,0.0,0.0,95,0.00,,,0.00,weatherlink.com 1.10,2013-01-21 07:51:00,
2013-01-21 03:06:00,47.5,46.0,30.09,East,88,0.0,0.0,95,0.00,,,0.00,weatherlink.com 1.10,2013-01-21 08:06:00,
2013-01-21 03:21:00,47.5,46.0,30.09,East,88,0.0,2.0,95,0.00,,,0.00,weatherlink.com 1.10,2013-01-21 08:21:00,
2013-01-21 03:36:00,47.2,46.0,30.08,East,88,0.0,1.0,95,0.00,,,0.00,weatherlink.com 1.10,2013-01-21 08:36:00,
2013-01-21 03:51:00,47.1,46.0,30.08,East,88,0.0,0.0,95,0.00,,,0.00,weatherlink.com 1.10,2013-01-21 08:51:00,
2013-01-21 04:36:00,47.6,46.0,30.07,East,88,0.0,0.0,95,0.00,,,0.00,weatherlink.com 1.10,2013-01-21 09:36:00,
2013-01-21 04:51:00,47.2,46.0,30.07,East,88,0.0,1.0,95,0.00,,,0.00,weatherlink.com 1.10,2013-01-21 09:51:00,
2013-01-21 05:06:00,47.2,46.0,30.06,East,88,0.0,0.0,95,0.00,,,0.00,weatherlink.com 1.10,2013-01-21 10:06:00,
2013-01-21 05:36:00,47.6,46.0,30.07,East,88,0.0,0.0,95,0.00,,,0.00,weatherlink.com 1.10,2013-01-21 10:36:00,
2013-01-21 05:51:00,47.6,46.0,30.07,East,88,0.0,0.0,95,0.00,,,0.00,weatherlink.com 1.10,2013-01-21 10:51:00,
2013-01-21 06:06:00,47.5,46.0,30.08,East,88,0.0,0.0,95,0.00,,,0.00,weatherlink.com 1.10,2013-01-21 11:06:00,
2013-01-21 06:36:00,47.0,46.0,30.08,East,88,0.0,0.0,95,0.00,,,0.00,weatherlink.com 1.10,2013-01-21 11:36:00,
2013-01-21 06:51:00,47.1,46.0,30.09,East,88,0.0,0.0,95,0.00,,,0.00,weatherlink.com 1.10,2013-01-21 11:51:00,
2013-01-21 07:06:00,47.0,46.0,30.09,East,88,0.0,0.0,95,0.00,,,0.00,weatherlink.com 1.10,2013-01-21 12:06:00,
2013-01-21 07:21:00,46.8,46.0,30.09,East,88,0.0,0.0,95,0.00,,,0.00,weatherlink.com 1.10,2013-01-21 12:21:00,
2013-01-21 07:36:00,47.3,46.0,30.09,East,88,0.0,0.0,95,0.00,,,0.00,weatherlink.com 1.10,2013-01-21 12:36:00,
2013-01-21 07:51:00,47.9,47.0,30.10,East,88,0.0,0.0,95,0.00,,,0.00,weatherlink.com 1.10,2013-01-21 12:51:00,
2013-01-21 08:06:00,48.7,48.0,30.10,East,88,0.0,0.0,96,0.00,,,0.00,weatherlink.com 1.10,2013-01-21 13:06:00,
2013-01-21 08:21:00,50.2,49.0,30.11,ESE,113,0.0,0.0,96,0.00,,,0.00,weatherlink.com 1.10,2013-01-21 13:21:00,
2013-01-21 08:36:00,51.6,51.0,30.11,ESE,113,0.0,0.0,96,0.00,,,0.00,weatherlink.com 1.10,2013-01-21 13:36:00,
2013-01-21 08:51:00,52.8,52.0,30.12,ESE,113,0.0,1.0,96,0.00,,,0.00,weatherlink.com 1.10,2013-01-21 13:51:00,
2013-01-21 09:06:00,53.5,52.0,30.12,ESE,113,0.0,2.0,96,0.00,,,0.00,weatherlink.com 1.10,2013-01-21 14:06:00,
2013-01-21 09:21:00,54.3,53.0,30.12,ESE,113,0.0,2.0,96,0.00,,,0.00,weatherlink.com 1.10,2013-01-21 14:21:00,
2013-01-21 09:36:00,54.7,53.0,30.13,NNW,327,2.0,5.0,95,0.00,,,0.00,weatherlink.com 1.10,2013-01-21 14:36:00,
2013-01-21 09:52:00,55.5,54.0,30.13,NNW,327,0.0,6.0,95,0.00,,,0.00,weatherlink.com 1.10,2013-01-21 14:52:00,
2013-01-21 10:07:00,58.5,55.0,30.13,NNW,327,3.0,5.0,89,0.00,,,0.00,weatherlink.com 1.10,2013-01-21 15:07:00,
2013-01-21 10:22:00,61.8,56.0,30.13,NNW,327,2.0,5.0,80,0.00,,,0.00,weatherlink.com 1.10,2013-01-21 15:22:00,
2013-01-21 10:37:00,64.3,55.0,30.14,NNW,327,0.0,3.0,72,0.00,,,0.00,weatherlink.com 1.10,2013-01-21 15:37:00,
2013-01-21 11:07:00,67.3,54.0,30.13,NNW,327,6.0,6.0,62,0.00,,,0.00,weatherlink.com 1.10,2013-01-21 16:07:00,
2013-01-21 11:22:00,67.6,52.0,30.13,NNW,333,2.0,7.0,58,0.00,,,0.00,weatherlink.com 1.10,2013-01-21 16:22:00,
2013-01-21 11:37:00,67.9,53.0,30.12,NW,317,1.0,6.0,59,0.00,,,0.00,weatherlink.com 1.10,2013-01-21 16:37:00,
2013-01-21 11:52:00,69.6,54.0,30.12,North,5,2.0,7.0,58,0.00,,,0.00,weatherlink.com 1.10,2013-01-21 16:52:00,
2013-01-21 12:07:00,70.2,53.0,30.10,North,355,3.0,9.0,55,0.00,,,0.00,weatherlink.com 1.10,2013-01-21 17:07:00,
2013-01-21 12:22:00,71.5,53.0,30.09,North,5,8.0,9.0,53,0.00,,,0.00,weatherlink.com 1.10,2013-01-21 17:22:00,
2013-01-21 12:37:00,71.8,54.0,30.08,North,5,6.0,10.0,53,0.00,,,0.00,weatherlink.com 1.10,2013-01-21 17:37:00,
2013-01-21 12:52:00,72.2,53.0,30.07,NNE,12,2.0,10.0,52,0.00,,,0.00,weatherlink.com 1.10,2013-01-21 17:52:00,
2013-01-21 13:07:00,71.4,52.0,30.07,North,350,6.0,10.0,51,0.00,,,0.00,weatherlink.com 1.10,2013-01-21 18:07:00,
2013-01-21 13:22:00,71.5,53.0,30.06,NNW,344,4.0,11.0,53,0.00,,,0.00,weatherlink.com 1.10,2013-01-21 18:22:00,
2013-01-21 13:37:00,71.1,53.0,30.05,NNW,327,3.0,11.0,53,0.00,,,0.00,weatherlink.com 1.10,2013-01-21 18:37:00,
2013-01-21 13:52:00,71.6,53.0,30.05,NW,311,4.0,9.0,53,0.00,,,0.00,weatherlink.com 1.10,2013-01-21 18:52:00,
2013-01-21 14:07:00,71.2,54.0,30.04,NNW,332,0.0,9.0,54,0.00,,,0.00,weatherlink.com 1.10,2013-01-21 19:07:00,
2013-01-21 14:22:00,71.8,53.0,30.04,NNE,22,8.0,11.0,51,0.00,,,0.00,weatherlink.com 1.10,2013-01-21 19:22:00,
2013-01-21 14:37:00,71.8,53.0,30.04,NNW,340,4.0,6.0,51,0.00,,,0.00,weatherlink.com 1.10,2013-01-21 19:37:00,
2013-01-21 14:52:00,71.1,52.0,30.04,NW,321,5.0,11.0,52,0.00,,,0.00,weatherlink.com 1.10,2013-01-21 19:52:00,
2013-01-21 15:07:00,70.6,52.0,30.03,NNE,18,3.0,10.0,52,0.00,,,0.00,weatherlink.com 1.10,2013-01-21 20:07:00,
2013-01-21 15:22:00,71.8,52.0,30.03,NW,321,2.0,10.0,50,0.00,,,0.00,weatherlink.com 1.10,2013-01-21 20:22:00,
2013-01-21 15:37:00,71.8,53.0,30.02,West,281,3.0,8.0,51,0.00,,,0.00,weatherlink.com 1.10,2013-01-21 20:37:00,
2013-01-21 15:52:00,70.4,52.0,30.03,NNW,327,3.0,9.0,53,0.00,,,0.00,weatherlink.com 1.10,2013-01-21 20:52:00,
2013-01-21 16:07:00,69.8,52.0,30.03,West,266,3.0,11.0,53,0.00,,,0.00,weatherlink.com 1.10,2013-01-21 21:07:00,
2013-01-21 16:22:00,69.0,52.0,30.03,West,270,2.0,7.0,54,0.00,,,0.00,weatherlink.com 1.10,2013-01-21 21:22:00,
2013-01-21 16:37:00,68.2,52.0,30.04,WNW,283,5.0,5.0,56,0.00,,,0.00,weatherlink.com 1.10,2013-01-21 21:37:00,
2013-01-21 16:52:00,68.1,52.0,30.03,WNW,294,0.0,7.0,56,0.00,,,0.00,weatherlink.com 1.10,2013-01-21 21:52:00,
2013-01-21 17:07:00,67.2,52.0,30.04,West,268,2.0,5.0,58,0.00,,,0.00,weatherlink.com 1.10,2013-01-21 22:07:00,
2013-01-21 17:22:00,65.9,52.0,30.04,West,268,0.0,3.0,61,0.00,,,0.00,weatherlink.com 1.10,2013-01-21 22:22:00,
2013-01-21 17:37:00,64.6,52.0,30.04,West,268,0.0,4.0,63,0.00,,,0.00,weatherlink.com 1.10,2013-01-21 22:37:00,
2013-01-21 17:52:00,63.0,52.0,30.05,West,268,0.0,0.0,68,0.00,,,0.00,weatherlink.com 1.10,2013-01-21 22:52:00,
2013-01-21 18:07:00,61.4,52.0,30.05,West,268,0.0,0.0,72,0.00,,,0.00,weatherlink.com 1.10,2013-01-21 23:07:00,
2013-01-21 18:22:00,59.9,52.0,30.05,West,268,0.0,0.0,76,0.00,,,0.00,weatherlink.com 1.10,2013-01-21 23:22:00,
2013-01-21 18:37:00,58.3,51.0,30.06,West,268,0.0,1.0,78,0.00,,,0.00,weatherlink.com 1.10,2013-01-21 23:37:00,
2013-01-21 18:52:00,57.6,52.0,30.06,West,268,0.0,0.0,81,0.00,,,0.00,weatherlink.com 1.10,2013-01-21 23:52:00,
2013-01-21 19:07:00,56.4,51.0,30.07,West,268,0.0,0.0,83,0.00,,,0.00,weatherlink.com 1.10,2013-01-22 00:07:00,
2013-01-21 19:22:00,55.7,52.0,30.07,West,268,0.0,0.0,86,0.00,,,0.00,weatherlink.com 1.10,2013-01-22 00:22:00,
2013-01-21 19:38:00,54.6,51.0,30.07,West,268,0.0,0.0,86,0.00,,,0.00,weatherlink.com 1.10,2013-01-22 00:38:00,
2013-01-21 19:53:00,53.6,50.0,30.07,West,268,0.0,0.0,87,0.00,,,0.00,weatherlink.com 1.10,2013-01-22 00:53:00,
2013-01-21 20:08:00,53.1,50.0,30.07,West,268,0.0,0.0,88,0.00,,,0.00,weatherlink.com 1.10,2013-01-22 01:08:00,
2013-01-21 20:23:00,52.9,50.0,30.07,West,268,0.0,0.0,89,0.00,,,0.00,weatherlink.com 1.10,2013-01-22 01:23:00,
2013-01-21 20:38:00,52.5,50.0,30.07,West,268,0.0,1.0,90,0.00,,,0.00,weatherlink.com 1.10,2013-01-22 01:38:00,
2013-01-21 20:53:00,52.0,49.0,30.08,West,268,0.0,0.0,90,0.00,,,0.00,weatherlink.com 1.10,2013-01-22 01:53:00,
2013-01-21 21:08:00,51.6,49.0,30.08,West,268,0.0,0.0,90,0.00,,,0.00,weatherlink.com 1.10,2013-01-22 02:08:00,
2013-01-21 21:23:00,50.7,48.0,30.09,West,268,0.0,0.0,90,0.00,,,0.00,weatherlink.com 1.10,2013-01-22 02:23:00,
2013-01-21 21:38:00,50.6,48.0,30.09,West,268,2.0,3.0,91,0.00,,,0.00,weatherlink.com 1.10,2013-01-22 02:38:00,
2013-01-21 21:53:00,50.3,48.0,30.09,NNW,336,0.0,5.0,91,0.00,,,0.00,weatherlink.com 1.10,2013-01-22 02:53:00,
2013-01-21 22:08:00,50.9,48.0,30.10,NW,315,1.0,5.0,88,0.00,,,0.00,weatherlink.com 1.10,2013-01-22 03:08:00,
2013-01-21 22:23:00,51.8,47.0,30.10,NNW,327,3.0,4.0,83,0.00,,,0.00,weatherlink.com 1.10,2013-01-22 03:23:00,
2013-01-21 22:38:00,51.2,46.0,30.11,NNW,327,0.0,3.0,82,0.00,,,0.00,weatherlink.com 1.10,2013-01-22 03:38:00,
2013-01-21 22:53:00,50.2,46.0,30.11,NNW,327,0.0,5.0,84,0.00,,,0.00,weatherlink.com 1.10,2013-01-22 03:53:00,
2013-01-21 23:08:00,49.4,45.0,30.10,NNW,327,0.0,2.0,85,0.00,,,0.00,weatherlink.com 1.10,2013-01-22 04:08:00,
2013-01-21 23:23:00,48.8,45.0,30.10,NNW,327,0.0,4.0,86,0.00,,,0.00,weatherlink.com 1.10,2013-01-22 04:23:00,
2013-01-21 23:38:00,48.2,45.0,30.11,NNW,327,0.0,2.0,87,0.00,,,0.00,weatherlink.com 1.10,2013-01-22 04:38:00,
2013-01-21 23:53:00,48.2,45.0,30.10,NNW,327,0.0,2.0,88,0.00,,,0.00,weatherlink.com 1.10,2013-01-22 04:53:00,